Terminal Aerodrome Forecast
Issued by NWS Jackson, MS

Home | Current Version | Previous Version | Text Only | Print | Product List | Glossary On
Versions: 1 2 3 4 5 6 7 8 9 10 11 12 13 14 15 16 17 18 19 20 21 22
000
FTUS44 KJAN 220200 AAB
TAFHBG
TAF AMD
KHBG 220258Z 2203/2224 05004KT 3SM BR OVC004
     FM220600 00000KT 1 1/2SM BR OVC003
     FM220800 00000KT 1SM BR OVC001
     FM220900 00000KT 1/2SM FG VV001
     FM221000 00000KT 1/4SM FG VV001
     FM221500 00000KT 1 1/2SM BR OVC003
     FM221600 16004KT 2SM BR OVC005
     FM221700 18006KT 4SM BR OVC007
     FM221800 18007KT P6SM OVC015=

USA.gov is the U.S. government's official web portal to all federal, state and local government web resources and services.